Time;durP1;ratioP1;P1;durP2;ratioP2;P2;SDS_P1;SDS_P2;PMS_P1;PMS_P2;Temp;Humidity;BMP_temperature;BMP_pressure;BME280_temperature;BME280_humidity;BME280_pressure;Samples;Min_cycle;Max_cycle;Signal;HPM_P1;HPM_P2
2022/05/01 00:01:42;;;;;;;10.32;7.85;;;13.80;43.20;;;;;;4925536;29;20761;-74
2022/05/01 00:04:08;;;;;;;9.27;7.90;;;13.70;43.20;;;;;;4927146;29;20034;-74
2022/05/01 00:06:35;;;;;;;10.07;7.95;;;13.70;43.20;;;;;;4925680;29;20154;-74
2022/05/01 00:09:02;;;;;;;10.63;8.23;;;13.70;43.30;;;;;;4935389;28;20028;-74
2022/05/01 00:11:30;;;;;;;10.30;7.10;;;13.70;43.40;;;;;;4932280;29;20042;-74
2022/05/01 00:13:59;;;;;;;8.10;7.32;;;13.70;43.40;;;;;;4921902;29;20039;-74
2022/05/01 00:16:25;;;;;;;7.85;7.00;;;13.70;43.50;;;;;;4938993;29;20046;-73
2022/05/01 00:18:51;;;;;;;7.93;7.22;;;13.70;43.50;;;;;;4949957;29;20091;-74
2022/05/01 00:21:19;;;;;;;8.73;7.55;;;13.70;43.60;;;;;;4944976;29;20185;-73
2022/05/01 00:23:45;;;;;;;8.48;7.43;;;13.70;43.70;;;;;;4957941;29;20020;-73
2022/05/01 00:26:12;;;;;;;9.10;7.88;;;13.60;43.50;;;;;;4947494;29;20187;-73
2022/05/01 00:28:39;;;;;;;8.48;7.68;;;13.60;43.60;;;;;;4930399;29;20098;-74
2022/05/01 00:31:06;;;;;;;9.45;7.65;;;13.70;43.90;;;;;;4931199;29;20436;-74
2022/05/01 00:36:28;;;;;;;8.82;7.93;;;13.60;43.80;;;;;;4932129;29;20160;-74
2022/05/01 00:39:02;;;;;;;9.80;7.57;;;13.60;43.80;;;;;;4930438;29;20027;-73
2022/05/01 00:41:30;;;;;;;9.52;7.90;;;13.70;44.10;;;;;;4925579;29;20154;-73
2022/05/01 00:44:10;;;;;;;10.57;8.93;;;13.60;43.90;;;;;;4928143;29;20104;-73
2022/05/01 00:46:38;;;;;;;9.98;8.20;;;13.60;44.10;;;;;;4929354;29;20039;-74
2022/05/01 00:49:08;;;;;;;9.15;7.95;;;13.60;44.10;;;;;;4928343;29;20313;-73
2022/05/01 00:51:38;;;;;;;11.00;7.25;;;13.60;44.10;;;;;;4926884;29;20122;-73
2022/05/01 00:54:07;;;;;;;9.20;8.05;;;13.60;44.20;;;;;;4928568;29;20047;-73
2022/05/01 00:56:37;;;;;;;11.25;7.97;;;13.60;44.20;;;;;;4927509;29;20618;-72
2022/05/01 00:59:03;;;;;;;8.15;7.35;;;13.50;44.20;;;;;;4925416;29;20713;-73
2022/05/01 01:01:30;;;;;;;9.70;8.55;;;13.50;44.20;;;;;;4910054;29;20067;-73
2022/05/01 01:03:56;;;;;;;10.23;9.00;;;13.50;44.20;;;;;;4922976;29;20032;-73
2022/05/01 01:06:22;;;;;;;10.25;8.30;;;13.50;44.30;;;;;;4927022;29;20059;-74
2022/05/01 01:08:48;;;;;;;9.70;8.30;;;13.50;44.40;;;;;;4927732;29;20196;-73
2022/05/01 01:11:14;;;;;;;8.35;7.55;;;13.50;44.40;;;;;;4928271;29;20032;-73
2022/05/01 01:13:39;;;;;;;8.90;7.60;;;13.50;44.50;;;;;;4924183;29;20032;-72
2022/05/01 01:16:09;;;;;;;9.10;7.97;;;13.50;44.60;;;;;;4928156;29;20047;-73
2022/05/01 01:18:35;;;;;;;11.60;9.02;;;13.50;44.70;;;;;;4927905;29;20032;-73
2022/05/01 01:21:01;;;;;;;8.82;7.85;;;13.40;44.50;;;;;;4927790;29;20028;-73
2022/05/01 01:23:29;;;;;;;9.50;8.52;;;13.40;44.60;;;;;;4937605;29;20081;-73
2022/05/01 01:25:54;;;;;;;8.73;7.93;;;13.40;44.70;;;;;;4925651;29;20047;-72
2022/05/01 01:28:21;;;;;;;9.63;8.70;;;13.40;44.80;;;;;;4925098;29;20031;-72
2022/05/01 01:33:36;;;;;;;9.90;7.82;;;13.40;44.90;;;;;;4927246;29;20024;-72
2022/05/01 01:36:03;;;;;;;9.90;8.90;;;13.40;44.90;;;;;;4928606;29;20039;-73
2022/05/01 01:38:30;;;;;;;11.10;8.07;;;13.40;44.90;;;;;;4927873;29;20395;-73
2022/05/01 01:40:59;;;;;;;10.15;8.65;;;13.40;45.50;;;;;;4927483;29;20401;-73
2022/05/01 01:43:29;;;;;;;9.13;7.95;;;13.40;45.00;;;;;;4923282;29;20122;-73
2022/05/01 01:45:56;;;;;;;9.25;8.23;;;13.40;45.10;;;;;;4922082;29;20074;-73
2022/05/01 01:48:23;;;;;;;9.20;8.23;;;13.40;45.10;;;;;;4914114;29;20098;-73
2022/05/01 01:51:03;;;;;;;12.27;8.45;;;13.40;45.20;;;;;;4930990;29;20082;-73
2022/05/01 01:53:31;;;;;;;10.15;8.63;;;13.40;45.30;;;;;;4929850;29;20050;-72
2022/05/01 01:55:58;;;;;;;8.02;7.15;;;13.40;45.20;;;;;;4916158;29;20114;-72
2022/05/01 01:58:25;;;;;;;10.10;8.68;;;13.40;45.30;;;;;;4928547;29;20522;-73
2022/05/01 02:00:51;;;;;;;8.35;7.50;;;13.30;45.10;;;;;;4929539;29;20522;-73
2022/05/01 02:03:17;;;;;;;9.02;8.13;;;13.30;45.20;;;;;;4927276;29;20040;-73
2022/05/01 02:05:44;;;;;;;9.75;8.70;;;13.30;45.30;;;;;;4930324;29;20066;-73
2022/05/01 02:08:11;;;;;;;10.80;8.65;;;13.30;45.40;;;;;;4932495;29;20036;-72
2022/05/01 02:10:39;;;;;;;9.50;8.50;;;13.20;45.30;;;;;;4931580;29;20032;-73
2022/05/01 02:13:06;;;;;;;11.93;8.82;;;13.20;45.40;;;;;;4932614;29;20059;-72
2022/05/01 02:15:34;;;;;;;10.52;8.98;;;13.20;45.50;;;;;;4933021;29;20044;-72
2022/05/01 02:18:01;;;;;;;9.48;8.57;;;13.20;45.40;;;;;;4933100;29;20678;-72
2022/05/01 02:21:33;;;;;;;9.95;8.88;;;13.20;45.60;;;;;;4931225;29;20050;-73
2022/05/01 02:23:15;;;;;;;9.52;8.60;;;13.20;45.60;;;;;;4924270;29;20035;-73
2022/05/01 02:25:41;;;;;;;10.23;8.77;;;13.20;45.60;;;;;;4932035;29;20059;-74
2022/05/01 02:28:07;;;;;;;14.85;9.98;;;13.10;45.60;;;;;;4907778;29;20114;-73
2022/05/01 02:30:33;;;;;;;10.32;9.10;;;13.10;45.60;;;;;;4928050;29;20029;-73
2022/05/01 02:32:59;;;;;;;11.07;9.95;;;13.10;45.70;;;;;;4931299;29;20178;-73
2022/05/01 02:35:25;;;;;;;9.75;8.73;;;13.10;45.70;;;;;;4931372;29;20403;-74
2022/05/01 02:37:51;;;;;;;10.95;9.80;;;13.10;45.80;;;;;;4926945;29;20057;-73
2022/05/01 02:40:17;;;;;;;12.80;10.35;;;13.10;45.90;;;;;;4925955;29;20035;-73
2022/05/01 02:42:43;;;;;;;9.43;8.52;;;13.10;45.90;;;;;;4928268;29;20019;-73
2022/05/01 02:45:10;;;;;;;12.10;10.50;;;13.10;46.00;;;;;;4930017;29;20106;-72
2022/05/01 02:47:36;;;;;;;12.02;10.68;;;13.10;46.10;;;;;;4929727;29;20047;-73
2022/05/01 02:50:03;;;;;;;10.70;9.60;;;13.10;46.10;;;;;;4929932;29;20040;-73
2022/05/01 02:52:29;;;;;;;11.80;9.75;;;13.10;46.10;;;;;;4928867;29;20036;-73
2022/05/01 02:54:55;;;;;;;10.68;9.75;;;13.10;46.80;;;;;;4920318;29;20118;-75
2022/05/01 02:57:22;;;;;;;11.57;10.38;;;13.00;46.10;;;;;;4927825;29;20119;-75
2022/05/01 02:59:47;;;;;;;10.50;9.02;;;13.00;46.10;;;;;;4929234;29;20411;-73
2022/05/01 03:02:15;;;;;;;11.57;10.13;;;13.00;46.20;;;;;;4917907;29;20028;-73
2022/05/01 03:04:40;;;;;;;10.75;9.65;;;13.00;46.30;;;;;;4927623;29;20038;-74
2022/05/01 03:07:07;;;;;;;12.25;9.95;;;13.00;46.30;;;;;;4921266;29;20076;-75
2022/05/01 03:09:34;;;;;;;11.02;9.93;;;13.00;46.40;;;;;;4934552;29;20074;-75
2022/05/01 03:12:01;;;;;;;11.18;9.82;;;13.00;46.50;;;;;;4935224;28;20036;-72
2022/05/01 03:14:29;;;;;;;12.40;10.10;;;13.00;46.60;;;;;;4931204;29;20512;-73
2022/05/01 03:16:55;;;;;;;12.00;10.38;;;12.90;46.40;;;;;;4927761;29;20114;-73
2022/05/01 03:22:13;;;;;;;14.07;10.15;;;12.90;46.60;;;;;;4944678;29;20100;-73
2022/05/01 03:24:40;;;;;;;13.55;10.32;;;12.90;46.70;;;;;;4950643;29;20028;-74
2022/05/01 03:27:07;;;;;;;11.90;10.65;;;12.90;46.80;;;;;;4951971;28;20107;-74
2022/05/01 03:29:33;;;;;;;11.20;10.10;;;12.90;46.90;;;;;;4937270;29;20148;-74
2022/05/01 03:32:00;;;;;;;13.20;10.77;;;12.90;47.00;;;;;;4950147;29;20050;-73
2022/05/01 03:34:26;;;;;;;11.90;10.30;;;12.90;47.10;;;;;;4932650;29;20040;-74
2022/05/01 03:36:56;;;;;;;12.02;10.82;;;12.90;47.10;;;;;;4951364;29;20044;-74
2022/05/01 03:39:22;;;;;;;12.80;10.80;;;12.90;47.20;;;;;;4954138;29;20062;-73
2022/05/01 03:41:48;;;;;;;13.15;11.77;;;12.90;47.30;;;;;;4954134;29;20073;-73
2022/05/01 03:44:14;;;;;;;11.55;10.27;;;12.90;47.30;;;;;;4950120;29;20047;-73
2022/05/01 03:46:39;;;;;;;10.18;9.18;;;12.90;47.40;;;;;;4927921;29;20039;-73
2022/05/01 03:49:06;;;;;;;13.63;10.93;;;12.90;47.50;;;;;;4936432;29;20042;-74
2022/05/01 03:51:34;;;;;;;14.88;10.70;;;12.90;47.60;;;;;;4934465;29;20070;-73
2022/05/01 03:54:02;;;;;;;11.00;9.60;;;12.90;47.70;;;;;;4937301;29;20032;-74
2022/05/01 03:56:29;;;;;;;11.77;10.57;;;12.90;47.70;;;;;;4950232;29;20051;-74
2022/05/01 03:58:56;;;;;;;11.90;9.88;;;12.90;47.80;;;;;;4957127;28;20020;-74
2022/05/01 04:01:22;;;;;;;12.07;10.88;;;12.80;48.30;;;;;;4955735;29;20039;-74
2022/05/01 04:03:47;;;;;;;13.07;10.98;;;12.90;48.00;;;;;;4956105;29;20123;-75
2022/05/01 04:06:14;;;;;;;12.45;10.45;;;12.80;47.80;;;;;;4963307;29;20678;-75
2022/05/01 04:08:41;;;;;;;14.20;11.32;;;12.80;47.90;;;;;;4936847;29;20456;-75
2022/05/01 04:11:06;;;;;;;13.68;11.10;;;12.80;48.00;;;;;;4934729;29;20035;-74
2022/05/01 04:13:33;;;;;;;11.80;10.60;;;12.80;48.10;;;;;;4934947;29;20028;-74
2022/05/01 04:15:59;;;;;;;14.10;9.90;;;12.80;48.20;;;;;;4934888;29;20055;-74
2022/05/01 04:18:25;;;;;;;12.73;11.50;;;12.80;48.30;;;;;;4933684;29;20234;-74
2022/05/01 04:20:52;;;;;;;12.82;10.68;;;12.80;48.40;;;;;;4926111;29;20051;-75
2022/05/01 04:23:18;;;;;;;13.82;11.10;;;12.70;48.30;;;;;;4936079;29;20040;-75
2022/05/01 04:25:45;;;;;;;11.75;10.65;;;12.80;48.60;;;;;;4931767;29;20028;-75
2022/05/01 04:28:12;;;;;;;13.63;11.80;;;12.70;48.50;;;;;;4913007;29;20028;-74
2022/05/01 04:30:40;;;;;;;12.27;10.85;;;12.80;48.80;;;;;;4932702;29;20063;-74
2022/05/01 04:33:13;;;;;;;11.57;10.38;;;12.80;48.90;;;;;;4931514;29;20034;-74
2022/05/01 04:35:47;;;;;;;12.73;10.77;;;12.80;49.00;;;;;;4932845;29;20138;-75
2022/05/01 04:38:17;;;;;;;13.20;11.80;;;12.80;49.10;;;;;;4915698;29;20543;-75
2022/05/01 04:40:47;;;;;;;14.20;11.18;;;12.80;49.10;;;;;;4931661;29;20036;-74
2022/05/01 04:43:14;;;;;;;12.73;11.00;;;12.70;49.00;;;;;;4932466;29;20032;-74
2022/05/01 04:45:42;;;;;;;12.70;10.80;;;12.80;49.30;;;;;;4932078;29;20559;-74
2022/05/01 04:48:10;;;;;;;15.52;12.68;;;12.80;49.40;;;;;;4928791;29;20440;-75
2022/05/01 04:50:37;;;;;;;13.02;11.73;;;12.80;49.50;;;;;;4928808;29;20150;-75
2022/05/01 04:53:09;;;;;;;11.95;10.85;;;12.80;49.60;;;;;;4916682;29;20028;-76
2022/05/01 04:55:36;;;;;;;14.07;11.90;;;12.80;49.60;;;;;;4929102;29;20050;-75
2022/05/01 04:58:03;;;;;;;11.95;10.75;;;12.80;49.70;;;;;;4930258;29;20036;-75
2022/05/01 05:00:29;;;;;;;12.43;11.15;;;12.80;49.80;;;;;;4921861;29;20160;-75
2022/05/01 05:02:59;;;;;;;12.50;11.23;;;12.80;49.90;;;;;;4929594;29;20035;-76
2022/05/01 05:05:26;;;;;;;14.32;12.32;;;12.80;50.00;;;;;;4929098;29;20031;-76
2022/05/01 05:07:52;;;;;;;13.43;11.43;;;12.80;50.10;;;;;;4928623;29;20039;-76
2022/05/01 05:10:19;;;;;;;12.15;10.70;;;12.80;50.10;;;;;;4930804;29;20119;-76
2022/05/01 05:12:48;;;;;;;13.05;11.70;;;12.80;50.30;;;;;;4927661;29;20183;-75
2022/05/01 05:15:20;;;;;;;13.40;11.38;;;12.80;50.30;;;;;;4933084;29;20102;-76
2022/05/01 05:17:46;;;;;;;11.48;10.25;;;12.80;50.50;;;;;;4928507;29;20027;-75
2022/05/01 05:20:13;;;;;;;13.18;11.88;;;12.80;50.40;;;;;;4921844;29;20714;-75
2022/05/01 05:22:40;;;;;;;11.77;10.57;;;12.80;50.50;;;;;;4924290;29;20081;-75
2022/05/01 05:25:12;;;;;;;13.20;10.93;;;12.90;50.80;;;;;;4923518;29;20079;-75
2022/05/01 05:27:41;;;;;;;12.52;11.23;;;12.80;50.70;;;;;;4928157;29;20183;-76
2022/05/01 05:30:08;;;;;;;15.20;13.65;;;12.80;50.70;;;;;;4930035;29;20437;-76
2022/05/01 05:32:34;;;;;;;12.20;10.93;;;12.90;51.00;;;;;;4924895;29;20028;-76
2022/05/01 05:35:00;;;;;;;16.10;11.82;;;12.90;51.00;;;;;;4925792;29;20495;-86
2022/05/01 05:37:26;;;;;;;13.07;11.77;;;12.90;51.00;;;;;;4930633;29;20063;-88
2022/05/01 05:39:51;;;;;;;18.00;12.27;;;12.90;51.00;;;;;;4926569;29;20055;-83
2022/05/01 05:42:18;;;;;;;13.43;12.02;;;13.00;51.30;;;;;;4928207;29;20313;-84
2022/05/01 05:44:44;;;;;;;14.85;12.32;;;13.00;51.30;;;;;;4915687;29;20032;-84
2022/05/01 05:47:10;;;;;;;15.07;11.88;;;13.00;51.30;;;;;;4908079;29;20078;-79
2022/05/01 05:49:36;;;;;;;13.63;11.55;;;13.00;51.30;;;;;;4921056;29;20498;-79
2022/05/01 05:52:01;;;;;;;13.55;12.10;;;13.00;51.40;;;;;;4918935;29;20523;-80
2022/05/01 05:54:27;;;;;;;14.07;12.57;;;13.10;51.50;;;;;;4927710;29;20039;-78
2022/05/01 05:56:54;;;;;;;14.65;13.15;;;13.10;51.60;;;;;;4927127;29;20099;-77
2022/05/01 05:59:19;;;;;;;14.13;12.27;;;13.10;51.60;;;;;;4925734;29;20036;-77
2022/05/01 06:01:45;;;;;;;15.30;13.13;;;13.20;51.80;;;;;;4924452;29;20035;-77
2022/05/01 06:04:11;;;;;;;14.32;12.85;;;13.10;51.70;;;;;;4923541;29;20031;-77
2022/05/01 06:06:37;;;;;;;16.27;13.00;;;13.20;51.90;;;;;;4920579;29;20099;-77
2022/05/01 06:09:03;;;;;;;14.48;13.05;;;13.20;51.90;;;;;;4924199;29;20267;-77
2022/05/01 06:11:29;;;;;;;14.20;12.70;;;13.20;51.90;;;;;;4925561;29;20053;-81
2022/05/01 06:13:55;;;;;;;13.90;12.48;;;13.30;52.10;;;;;;4925196;29;20050;-82
2022/05/01 06:16:21;;;;;;;15.90;12.75;;;13.30;52.10;;;;;;4929213;29;20040;-80
2022/05/01 06:18:47;;;;;;;17.13;12.88;;;13.30;52.00;;;;;;4925201;29;20012;-79
2022/05/01 06:21:13;;;;;;;14.63;12.65;;;13.30;52.00;;;;;;4925245;29;20043;-82
2022/05/01 06:23:40;;;;;;;16.67;12.88;;;13.40;52.20;;;;;;4930578;29;20137;-79
2022/05/01 06:26:07;;;;;;;15.15;13.30;;;13.40;52.20;;;;;;4924051;29;20508;-81
2022/05/01 06:28:33;;;;;;;16.52;14.05;;;13.50;52.30;;;;;;4926530;29;20130;-81
2022/05/01 06:31:00;;;;;;;14.77;13.25;;;13.50;52.40;;;;;;4925225;29;20135;-76
2022/05/01 06:33:30;;;;;;;15.18;13.60;;;13.50;52.40;;;;;;4932065;29;20031;-86
2022/05/01 06:35:56;;;;;;;14.57;12.50;;;13.50;52.50;;;;;;4914253;29;20054;-81
2022/05/01 06:38:23;;;;;;;14.88;12.45;;;13.50;52.30;;;;;;4917224;29;20028;-76
2022/05/01 06:40:49;;;;;;;15.20;13.50;;;13.60;52.50;;;;;;4927726;29;20533;-83
2022/05/01 06:43:21;;;;;;;14.27;12.77;;;13.60;52.50;;;;;;4933072;28;20071;-78
2022/05/01 06:45:48;;;;;;;15.63;12.90;;;13.70;52.70;;;;;;4923877;29;20551;-78
2022/05/01 06:48:14;;;;;;;15.50;13.88;;;13.70;52.60;;;;;;4911882;29;20076;-78
2022/05/01 06:50:40;;;;;;;14.30;12.82;;;13.80;52.70;;;;;;4907083;29;20031;-78
2022/05/01 06:53:07;;;;;;;15.48;12.82;;;13.90;53.40;;;;;;4928144;29;20024;-78
2022/05/01 06:55:34;;;;;;;15.07;13.57;;;13.90;52.70;;;;;;4925642;29;20070;-82
2022/05/01 06:58:00;;;;;;;14.05;12.55;;;13.90;52.70;;;;;;4910000;29;20039;-81
2022/05/01 07:00:26;;;;;;;15.52;13.85;;;14.00;52.90;;;;;;4917930;29;20032;-80
2022/05/01 07:02:53;;;;;;;13.88;12.55;;;14.00;52.80;;;;;;4927486;29;20026;-80
2022/05/01 07:05:21;;;;;;;14.43;12.88;;;14.10;53.00;;;;;;4928044;29;20036;-80
2022/05/01 07:07:48;;;;;;;16.48;13.63;;;14.10;53.00;;;;;;4926748;29;20074;-80
2022/05/01 07:10:14;;;;;;;14.23;12.82;;;14.10;53.00;;;;;;4927437;29;20118;-81
2022/05/01 07:12:40;;;;;;;13.40;12.00;;;14.20;53.10;;;;;;4925158;29;20851;-80
2022/05/01 07:15:06;;;;;;;13.73;11.98;;;14.20;53.10;;;;;;4931261;29;20031;-78
2022/05/01 07:17:33;;;;;;;9.50;8.48;;;14.20;53.10;;;;;;4926249;29;20472;-77
2022/05/01 07:19:59;;;;;;;10.57;8.90;;;14.30;53.80;;;;;;4908657;29;20528;-79
2022/05/01 07:22:26;;;;;;;12.55;8.15;;;14.40;54.90;;;;;;4924681;29;20043;-79
2022/05/01 07:24:52;;;;;;;10.90;7.82;;;14.60;55.80;;;;;;4920349;29;20036;-79
2022/05/01 07:27:18;;;;;;;9.23;7.47;;;14.80;56.30;;;;;;4924762;29;20563;-80
2022/05/01 07:29:44;;;;;;;8.93;8.02;;;14.90;56.60;;;;;;4925843;29;20122;-79
2022/05/01 07:32:10;;;;;;;7.97;7.10;;;15.10;56.90;;;;;;4922667;29;20337;-79
2022/05/01 07:34:38;;;;;;;8.32;7.53;;;15.30;57.20;;;;;;4938803;29;20072;-80
2022/05/01 07:37:04;;;;;;;8.02;7.25;;;15.50;57.50;;;;;;4931500;29;20055;-79
2022/05/01 07:39:31;;;;;;;7.88;7.07;;;15.60;57.60;;;;;;4930239;29;20298;-79
2022/05/01 07:41:57;;;;;;;8.52;6.95;;;15.70;57.70;;;;;;4950629;29;20134;-82
2022/05/01 07:44:23;;;;;;;10.27;7.53;;;15.80;57.70;;;;;;4941001;29;20028;-83
2022/05/01 07:46:51;;;;;;;7.93;7.13;;;15.90;57.70;;;;;;4933515;29;20056;-83
2022/05/01 07:49:18;;;;;;;7.88;7.07;;;16.00;57.70;;;;;;4906193;29;20033;-84
2022/05/01 07:51:44;;;;;;;8.13;7.22;;;16.10;57.80;;;;;;4928082;29;20043;-77
2022/05/01 07:54:10;;;;;;;8.77;7.30;;;16.20;57.90;;;;;;4919756;29;20028;-80
2022/05/01 07:56:36;;;;;;;8.07;7.28;;;16.20;57.80;;;;;;4926717;29;20039;-80
2022/05/01 07:59:05;;;;;;;9.20;8.30;;;16.20;58.20;;;;;;4925137;29;20058;-78
2022/05/01 08:01:31;;;;;;;9.25;8.27;;;16.20;57.50;;;;;;4927673;29;20048;-80
2022/05/01 08:06:42;;;;;;;10.15;9.13;;;16.10;57.20;;;;;;4918645;29;20035;-80
2022/05/01 08:09:11;;;;;;;10.15;9.10;;;16.10;57.10;;;;;;4925242;29;20503;-81
2022/05/01 08:11:36;;;;;;;10.63;9.63;;;16.10;57.10;;;;;;4909873;29;20031;-80
2022/05/01 08:14:03;;;;;;;10.13;9.05;;;16.00;56.90;;;;;;4918729;29;20099;-79
2022/05/01 08:16:29;;;;;;;10.32;9.35;;;16.00;56.80;;;;;;4920215;29;20130;-91
2022/05/01 08:21:40;;;;;;;10.88;9.77;;;16.00;56.70;;;;;;4915031;29;20042;-78
2022/05/01 08:24:06;;;;;;;10.60;9.50;;;15.90;56.50;;;;;;4939427;29;20514;-78
2022/05/01 08:26:33;;;;;;;10.60;9.52;;;15.90;56.40;;;;;;4929343;29;20028;-79
2022/05/01 08:29:00;;;;;;;10.82;9.82;;;15.90;56.40;;;;;;4923724;29;20350;-79
2022/05/01 08:31:26;;;;;;;12.27;10.15;;;15.80;56.20;;;;;;4932569;29;20038;-79
2022/05/01 08:33:53;;;;;;;11.27;9.95;;;15.70;55.90;;;;;;4913572;29;20046;-79
2022/05/01 08:36:18;;;;;;;11.85;10.30;;;15.70;55.90;;;;;;4926996;29;20079;-80
2022/05/01 08:38:44;;;;;;;13.18;9.98;;;15.70;55.90;;;;;;4929391;29;20044;-79
2022/05/01 08:41:10;;;;;;;14.18;10.55;;;15.70;55.90;;;;;;4919403;29;20503;-79
2022/05/01 08:43:37;;;;;;;11.77;10.45;;;15.60;55.70;;;;;;4930080;29;20057;-88
2022/05/01 08:46:24;;;;;;;12.18;10.80;;;15.70;55.90;;;;;;4924876;29;20024;-89
2022/05/01 08:49:04;;;;;;;11.35;10.05;;;15.60;55.70;;;;;;4925985;29;20110;-84
2022/05/01 08:51:38;;;;;;;11.77;10.57;;;15.70;55.80;;;;;;4926969;29;20036;-85
2022/05/01 08:54:07;;;;;;;10.43;9.32;;;15.70;55.60;;;;;;4937061;29;20049;-85
2022/05/01 08:56:34;;;;;;;12.15;10.18;;;15.70;55.50;;;;;;4923891;29;20043;-86
2022/05/01 08:59:09;;;;;;;12.70;9.90;;;15.80;55.50;;;;;;4921331;29;20035;-87
2022/05/01 09:01:36;;;;;;;11.40;9.93;;;15.80;55.40;;;;;;4926328;29;20031;-87
2022/05/01 09:04:08;;;;;;;10.68;9.65;;;15.90;55.40;;;;;;4930165;29;20688;-87
2022/05/01 09:06:38;;;;;;;12.30;10.73;;;15.90;55.20;;;;;;4925264;29;20032;-87
2022/05/01 09:09:08;;;;;;;12.93;10.38;;;16.00;55.20;;;;;;4928104;29;20301;-77
2022/05/01 09:14:25;;;;;;;14.88;11.15;;;16.10;55.00;;;;;;4924523;29;20040;-89
2022/05/01 09:17:16;;;;;;;12.07;10.25;;;16.10;54.90;;;;;;4931230;29;20036;-77
2022/05/01 09:19:44;;;;;;;12.15;10.50;;;16.20;55.00;;;;;;4932375;29;20032;-77
2022/05/01 09:22:11;;;;;;;10.85;9.77;;;16.30;54.90;;;;;;4929507;29;20128;-76
2022/05/01 09:24:37;;;;;;;10.23;9.20;;;16.30;54.80;;;;;;4925759;29;20114;-77
2022/05/01 09:27:03;;;;;;;10.30;9.30;;;16.40;54.90;;;;;;4922578;29;20035;-77
2022/05/01 09:29:34;;;;;;;10.75;9.75;;;16.50;54.80;;;;;;4925007;29;20031;-77
2022/05/01 09:32:03;;;;;;;10.93;9.52;;;16.60;54.80;;;;;;4919977;29;20451;-83
2022/05/01 09:34:35;;;;;;;11.18;9.32;;;16.70;54.70;;;;;;4923950;29;20071;-80
2022/05/01 09:37:04;;;;;;;10.77;9.75;;;16.80;54.70;;;;;;4905360;29;20071;-82
2022/05/01 09:39:33;;;;;;;9.52;8.43;;;16.90;54.70;;;;;;4925749;29;20121;-79
2022/05/01 09:42:17;;;;;;;12.18;10.85;;;16.90;54.50;;;;;;4922211;29;20106;-88
2022/05/01 09:44:43;;;;;;;9.57;8.70;;;16.90;54.30;;;;;;4922969;29;20039;-79
2022/05/01 09:47:09;;;;;;;11.25;9.60;;;17.10;54.60;;;;;;4920571;29;20048;-80
2022/05/01 09:49:51;;;;;;;11.02;9.95;;;17.10;54.30;;;;;;4920199;29;20070;-79
2022/05/01 09:52:19;;;;;;;10.30;9.40;;;17.30;54.40;;;;;;4925384;29;20282;-80
2022/05/01 09:55:06;;;;;;;10.57;9.15;;;17.40;54.30;;;;;;4921785;29;20642;-81
2022/05/01 09:57:32;;;;;;;9.77;8.77;;;17.50;54.20;;;;;;4921573;29;20043;-80
2022/05/01 09:59:58;;;;;;;12.77;9.70;;;17.60;54.10;;;;;;4929056;29;20046;-81
2022/05/01 10:02:30;;;;;;;10.30;9.40;;;17.70;54.00;;;;;;4923619;29;20080;-81
2022/05/01 10:05:06;;;;;;;11.32;9.15;;;17.80;54.00;;;;;;4927102;29;20063;-81
2022/05/01 10:07:37;;;;;;;10.85;9.75;;;17.80;53.90;;;;;;4926799;29;20114;-81
2022/05/01 10:10:08;;;;;;;11.60;8.88;;;17.90;54.00;;;;;;4925363;29;20106;-81
2022/05/01 10:12:45;;;;;;;10.85;8.75;;;17.90;53.90;;;;;;4921878;29;20114;-77
2022/05/01 10:15:12;;;;;;;11.60;10.45;;;17.90;53.80;;;;;;4919747;29;20054;-78
2022/05/01 10:17:39;;;;;;;10.35;9.38;;;17.90;53.70;;;;;;4925517;29;20530;-76
2022/05/01 10:20:08;;;;;;;10.82;9.80;;;17.90;53.60;;;;;;4921311;29;20036;-76
2022/05/01 10:22:35;;;;;;;10.13;8.70;;;17.90;53.60;;;;;;4929715;29;20036;-78
2022/05/01 10:25:03;;;;;;;9.98;9.02;;;17.90;53.50;;;;;;4920942;29;20170;-75
2022/05/01 10:27:52;;;;;;;11.80;9.90;;;18.00;53.60;;;;;;4928056;29;20056;-79
2022/05/01 10:33:28;;;;;;;11.43;10.32;;;18.10;53.40;;;;;;4922992;29;20479;-83
2022/05/01 10:36:19;;;;;;;10.00;8.95;;;18.10;53.30;;;;;;4929104;29;20039;-79
2022/05/01 10:39:11;;;;;;;10.93;9.80;;;18.10;53.30;;;;;;4918154;29;20032;-79
2022/05/01 10:41:45;;;;;;;12.70;10.25;;;18.10;53.20;;;;;;4924250;29;20511;-78
2022/05/01 10:44:33;;;;;;;12.13;10.65;;;18.20;53.30;;;;;;4924651;29;20024;-78
2022/05/01 10:47:14;;;;;;;11.45;9.52;;;18.20;53.20;;;;;;4927817;29;20048;-79
2022/05/01 10:49:47;;;;;;;12.05;10.40;;;18.30;53.20;;;;;;4908735;29;20032;-79
2022/05/01 10:52:17;;;;;;;11.88;10.77;;;18.30;53.10;;;;;;4921501;29;20266;-79
2022/05/01 10:55:09;;;;;;;11.98;10.75;;;18.40;53.00;;;;;;4921544;29;20143;-79
2022/05/01 10:57:36;;;;;;;11.18;9.88;;;18.40;52.80;;;;;;4922642;29;20082;-78
2022/05/01 11:00:12;;;;;;;11.30;10.07;;;18.40;52.80;;;;;;4927676;29;20434;-78
2022/05/01 11:02:41;;;;;;;12.82;10.73;;;18.40;52.90;;;;;;4941210;29;20101;-80
2022/05/01 11:05:11;;;;;;;11.10;9.95;;;18.40;53.10;;;;;;4944401;29;20063;-79
2022/05/01 11:07:39;;;;;;;14.55;12.10;;;18.40;53.20;;;;;;4946726;28;20032;-79
2022/05/01 11:10:10;;;;;;;12.48;10.45;;;18.40;53.20;;;;;;4945148;29;20047;-79
2022/05/01 11:12:37;;;;;;;12.05;10.95;;;18.30;53.00;;;;;;4952180;29;20143;-79
2022/05/01 11:15:08;;;;;;;13.07;11.23;;;18.30;53.10;;;;;;4947076;29;20032;-78
2022/05/01 11:17:37;;;;;;;11.85;10.57;;;18.20;53.00;;;;;;4947526;28;20090;-79
2022/05/01 11:20:29;;;;;;;13.50;12.27;;;18.10;52.90;;;;;;4929839;29;20087;-79
2022/05/01 11:23:07;;;;;;;12.32;11.23;;;18.10;52.90;;;;;;4950241;29;20031;-81
2022/05/01 11:25:42;;;;;;;12.30;11.00;;;18.00;52.80;;;;;;4942805;28;20060;-80
2022/05/01 11:28:08;;;;;;;12.55;11.30;;;18.00;52.80;;;;;;4941668;29;20027;-78
2022/05/01 11:30:37;;;;;;;13.27;11.98;;;18.00;52.80;;;;;;4929995;29;20043;-79
2022/05/01 11:33:11;;;;;;;15.30;12.10;;;18.00;52.80;;;;;;4924338;29;20073;-79
2022/05/01 11:36:04;;;;;;;14.82;12.00;;;17.90;52.70;;;;;;4928578;29;20138;-79
2022/05/01 11:38:51;;;;;;;14.85;13.45;;;17.90;52.90;;;;;;4928484;28;20035;-78
2022/05/01 11:41:46;;;;;;;13.68;12.25;;;17.80;52.80;;;;;;4927329;29;20065;-89
2022/05/01 11:44:23;;;;;;;13.50;12.27;;;17.70;52.70;;;;;;4930006;29;20036;-94
2022/05/01 11:46:49;;;;;;;14.07;12.68;;;17.60;52.60;;;;;;4951907;29;20055;-92
2022/05/01 11:49:15;;;;;;;13.52;12.32;;;17.60;52.70;;;;;;4933205;29;20039;-95
2022/05/01 11:51:44;;;;;;;12.88;11.57;;;17.60;52.80;;;;;;4939244;29;20118;-95
2022/05/01 11:54:11;;;;;;;15.23;12.93;;;17.50;52.70;;;;;;4936987;29;20047;-96
2022/05/01 12:02:26;;;;;;;14.00;12.57;;;17.50;52.90;;;;;;4943641;29;20941;-81
2022/05/01 12:05:04;;;;;;;13.27;12.07;;;17.60;53.60;;;;;;4950646;28;20132;-83
2022/05/01 12:07:31;;;;;;;14.07;12.65;;;17.60;54.20;;;;;;4950076;29;20102;-78
2022/05/01 12:09:57;;;;;;;12.60;11.40;;;17.70;54.50;;;;;;4940381;29;20040;-77
2022/05/01 12:12:28;;;;;;;13.45;12.07;;;17.80;55.10;;;;;;4931824;29;20035;-78
2022/05/01 12:14:54;;;;;;;13.65;12.27;;;17.90;55.60;;;;;;4934467;29;20039;-79
2022/05/01 12:17:23;;;;;;;14.00;12.65;;;17.90;55.70;;;;;;4935327;29;20047;-81
2022/05/01 12:19:51;;;;;;;14.20;12.80;;;18.00;55.90;;;;;;4933718;29;20142;-83
2022/05/01 12:22:20;;;;;;;15.55;13.48;;;18.00;56.10;;;;;;4927521;29;20083;-84
2022/05/01 12:24:48;;;;;;;13.88;12.35;;;18.00;56.20;;;;;;4935186;28;20032;-80
2022/05/01 12:27:18;;;;;;;13.05;11.75;;;18.00;56.50;;;;;;4922931;29;20392;-81
2022/05/01 12:29:51;;;;;;;13.88;12.50;;;18.00;56.70;;;;;;4928783;29;20027;-80
2022/05/01 12:32:20;;;;;;;14.25;12.95;;;17.90;56.80;;;;;;4931571;29;20036;-79
2022/05/01 12:34:49;;;;;;;13.70;12.30;;;18.00;57.00;;;;;;4923045;29;20036;-79
2022/05/01 12:37:16;;;;;;;13.75;12.45;;;17.90;56.90;;;;;;4929869;29;20039;-79
2022/05/01 12:39:43;;;;;;;17.17;12.27;;;17.90;57.00;;;;;;4928789;29;20063;-79
2022/05/01 12:45:09;;;;;;;13.27;11.98;;;17.90;57.20;;;;;;4929116;29;20036;-79
2022/05/01 12:47:37;;;;;;;14.07;12.57;;;17.90;57.50;;;;;;4922498;29;20052;-79
2022/05/01 12:50:23;;;;;;;16.10;13.57;;;17.90;57.50;;;;;;4928199;29;20083;-79
2022/05/01 12:52:55;;;;;;;13.23;11.82;;;17.80;57.70;;;;;;4930068;29;20039;-78
2022/05/01 12:55:32;;;;;;;14.50;13.00;;;17.70;57.50;;;;;;4923408;29;20496;-77
2022/05/01 12:58:00;;;;;;;12.80;11.57;;;17.60;57.60;;;;;;4927296;29;20027;-79
2022/05/01 13:00:34;;;;;;;15.20;13.80;;;17.70;57.90;;;;;;4924059;29;20028;-78
2022/05/01 13:03:24;;;;;;;12.70;11.50;;;17.70;58.00;;;;;;4925447;29;20040;-79
2022/05/01 13:06:11;;;;;;;13.80;12.40;;;17.80;58.10;;;;;;4926644;29;20048;-77
2022/05/01 13:08:39;;;;;;;14.45;13.05;;;17.80;57.90;;;;;;4920447;29;20102;-77
2022/05/01 13:11:27;;;;;;;14.45;12.98;;;17.90;57.80;;;;;;4928242;29;20440;-80